Time;durP1;ratioP1;P1;durP2;ratioP2;P2;SDS_P1;SDS_P2;PMS_P1;PMS_P2;Temp;Humidity;BMP_temperature;BMP_pressure;BME280_temperature;BME280_humidity;BME280_pressure;Samples;Min_cycle;Max_cycle;Signal;HPM_P1;HPM_P2
2022/12/26 00:02:04;;;;;;;68.40;20.83;;;10.40;99.90;;;;;;4995960;28;20019;-87
2022/12/26 00:04:29;;;;;;;73.32;20.83;;;10.40;99.90;;;;;;4996279;28;20032;-88
2022/12/26 00:06:58;;;;;;;78.95;22.90;;;10.30;99.90;;;;;;4996565;28;20324;-87
2022/12/26 00:09:24;;;;;;;56.60;21.33;;;10.40;99.90;;;;;;4996326;28;20033;-86
2022/12/26 00:11:55;;;;;;;77.85;22.88;;;10.40;99.90;;;;;;4996411;28;20015;-88
2022/12/26 00:14:21;;;;;;;88.13;23.30;;;10.40;99.90;;;;;;4996134;28;20061;-87
2022/12/26 00:16:46;;;;;;;76.57;22.77;;;10.40;99.90;;;;;;4996457;28;20033;-87
2022/12/26 00:19:12;;;;;;;67.18;21.80;;;10.40;99.90;;;;;;4996421;28;20113;-86
2022/12/26 00:21:38;;;;;;;62.97;19.98;;;10.40;99.90;;;;;;4996372;28;20030;-87
2022/12/26 00:24:05;;;;;;;55.75;22.30;;;10.40;99.90;;;;;;4996244;28;20451;-88
2022/12/26 00:26:35;;;;;;;80.25;21.80;;;10.40;99.90;;;;;;5001132;28;20042;-87
2022/12/26 00:29:04;;;;;;;101.32;26.40;;;10.50;99.90;;;;;;5014783;28;20019;-86
2022/12/26 00:31:41;;;;;;;81.90;24.55;;;10.50;99.90;;;;;;5018788;28;20076;-88
2022/12/26 00:34:08;;;;;;;68.35;22.23;;;10.50;99.90;;;;;;5018859;28;20018;-91
2022/12/26 00:36:39;;;;;;;87.75;25.73;;;10.50;99.90;;;;;;5019214;28;20018;-87
2022/12/26 00:39:07;;;;;;;68.82;22.60;;;10.50;99.90;;;;;;5019005;28;20026;-87
2022/12/26 00:41:33;;;;;;;64.75;23.73;;;10.50;99.90;;;;;;5018813;28;20030;-87
2022/12/26 00:43:59;;;;;;;86.47;24.90;;;10.50;99.90;;;;;;5018019;28;20018;-88
2022/12/26 00:46:26;;;;;;;81.60;24.70;;;10.40;99.90;;;;;;5017871;28;20003;-88
2022/12/26 00:48:55;;;;;;;61.25;22.95;;;10.50;99.90;;;;;;5002566;28;20026;-86
2022/12/26 00:51:21;;;;;;;82.68;24.50;;;10.50;99.90;;;;;;4995887;28;20049;-87
2022/12/26 00:53:47;;;;;;;76.88;25.73;;;10.40;99.90;;;;;;4997105;28;20018;-87
2022/12/26 00:56:12;;;;;;;85.45;25.35;;;10.40;99.90;;;;;;4995708;28;20374;-85
2022/12/26 00:58:40;;;;;;;93.65;28.25;;;10.50;99.90;;;;;;4995749;28;20053;-87
2022/12/26 01:01:09;;;;;;;87.78;25.67;;;10.50;99.90;;;;;;4995366;28;20080;-87
2022/12/26 01:03:35;;;;;;;98.32;28.35;;;10.50;99.90;;;;;;4986275;28;20030;-87
2022/12/26 01:06:03;;;;;;;100.45;26.35;;;10.40;99.90;;;;;;4975280;28;20018;-87
2022/12/26 01:08:29;;;;;;;89.13;27.63;;;10.40;99.90;;;;;;4959957;28;20027;-87
2022/12/26 01:10:55;;;;;;;108.53;29.30;;;10.40;99.90;;;;;;4975658;28;20473;-87
2022/12/26 01:13:21;;;;;;;87.05;26.42;;;10.40;99.90;;;;;;4976348;28;20026;-87
2022/12/26 01:15:53;;;;;;;88.72;26.92;;;10.40;99.90;;;;;;4975996;28;20015;-87
2022/12/26 01:18:21;;;;;;;78.55;26.27;;;10.40;99.90;;;;;;4975838;28;20462;-88
2022/12/26 01:20:48;;;;;;;74.00;25.48;;;10.50;99.90;;;;;;4975988;28;20129;-87
2022/12/26 01:23:14;;;;;;;66.18;24.92;;;10.50;99.90;;;;;;4975791;28;20030;-87
2022/12/26 01:25:40;;;;;;;93.80;26.45;;;10.40;99.90;;;;;;4975334;28;20023;-87
2022/12/26 01:28:06;;;;;;;70.03;25.05;;;10.40;99.90;;;;;;4975687;28;20089;-87
2022/12/26 01:30:32;;;;;;;92.10;26.40;;;10.40;99.90;;;;;;4975228;28;20027;-86
2022/12/26 01:32:57;;;;;;;53.42;21.15;;;10.50;99.90;;;;;;4975567;28;20019;-87
2022/12/26 01:35:25;;;;;;;58.72;23.00;;;10.40;99.90;;;;;;4975982;28;20023;-87
2022/12/26 01:37:54;;;;;;;55.92;22.42;;;10.40;99.90;;;;;;4992062;28;20022;-88
2022/12/26 01:40:20;;;;;;;54.40;21.77;;;10.50;99.90;;;;;;4964529;28;20074;-87
2022/12/26 01:42:46;;;;;;;53.38;22.27;;;10.40;99.90;;;;;;4983969;28;20447;-87
2022/12/26 01:45:21;;;;;;;63.78;23.73;;;10.40;99.90;;;;;;4958996;28;20060;-87
2022/12/26 01:48:24;;;;;;;50.63;20.65;;;10.50;99.90;;;;;;4976133;28;20019;-87
2022/12/26 01:51:00;;;;;;;67.78;23.95;;;10.40;99.90;;;;;;4976526;28;20022;-88
2022/12/26 01:53:34;;;;;;;51.72;22.80;;;10.40;99.90;;;;;;4975002;28;20038;-89
2022/12/26 01:56:09;;;;;;;57.25;22.15;;;10.40;99.90;;;;;;4975659;28;20443;-88
2022/12/26 01:58:43;;;;;;;56.40;23.65;;;10.40;99.90;;;;;;4975379;28;20383;-87
2022/12/26 02:01:09;;;;;;;61.53;23.13;;;10.50;99.90;;;;;;4975271;28;20062;-88
2022/12/26 02:06:22;;;;;;;60.70;22.80;;;10.40;99.90;;;;;;4976776;28;20105;-88
2022/12/26 02:08:50;;;;;;;54.40;22.55;;;10.50;99.90;;;;;;4974976;28;20460;-88
2022/12/26 02:11:21;;;;;;;62.38;24.02;;;10.40;99.90;;;;;;4974930;28;20027;-89
2022/12/26 02:13:47;;;;;;;58.17;23.67;;;10.40;99.90;;;;;;4975091;28;20117;-88
2022/12/26 02:16:16;;;;;;;59.50;24.02;;;10.40;99.90;;;;;;4975147;28;20030;-87
2022/12/26 02:18:42;;;;;;;57.20;24.17;;;10.40;99.90;;;;;;4975034;28;20042;-87
2022/12/26 02:21:26;;;;;;;59.08;25.10;;;10.40;99.90;;;;;;4943204;28;20070;-89
2022/12/26 02:23:55;;;;;;;65.57;27.25;;;10.40;99.90;;;;;;4975090;28;20033;-89
2022/12/26 02:26:52;;;;;;;73.13;28.50;;;10.40;99.90;;;;;;4975556;28;20114;-89
2022/12/26 02:29:26;;;;;;;73.05;27.85;;;10.40;99.90;;;;;;4974969;28;20023;-89
2022/12/26 02:32:15;;;;;;;81.45;28.67;;;10.40;99.90;;;;;;4974838;28;20030;-88
2022/12/26 02:35:18;;;;;;;76.30;29.73;;;10.40;99.90;;;;;;4956203;28;20352;-89
2022/12/26 02:37:55;;;;;;;81.22;29.88;;;10.40;99.90;;;;;;4989147;28;20018;-89
2022/12/26 02:41:10;;;;;;;76.95;29.73;;;10.40;99.90;;;;;;4995775;28;20062;-90
2022/12/26 02:43:55;;;;;;;67.20;28.23;;;10.30;99.90;;;;;;4958054;29;20081;-89
2022/12/26 03:13:09;;;;;;;62.40;28.15;;;10.30;99.90;;;;;;4973291;28;20046;-89
2022/12/26 03:13:11;;;;;;;59.40;28.30;;;10.10;99.90;;;;;;4979419;28;20090;-87
2022/12/26 03:18:30;;;;;;;60.70;27.87;;;10.20;99.90;;;;;;4978570;28;20033;-88
2022/12/26 03:20:57;;;;;;;46.85;24.35;;;10.10;99.90;;;;;;4977995;28;20290;-87
2022/12/26 03:23:24;;;;;;;47.08;24.75;;;10.20;99.90;;;;;;4977442;28;20023;-88
2022/12/26 03:30:47;;;;;;;56.42;27.40;;;10.10;99.90;;;;;;4918738;29;20075;-88
2022/12/26 03:31:44;;;;;;;51.95;26.15;;;10.10;99.90;;;;;;4918837;29;20028;-88
2022/12/26 03:34:17;;;;;;;58.13;29.42;;;10.10;99.90;;;;;;4963880;28;20045;-88
2022/12/26 03:36:58;;;;;;;58.38;27.60;;;10.10;99.90;;;;;;4961687;28;20452;-88
2022/12/26 04:21:04;;;;;;;69.15;34.85;;;10.10;99.90;;;;;;5000521;28;20049;-89
2022/12/26 04:44:10;;;;;;;46.42;27.45;;;10.10;99.90;;;;;;4977758;28;20033;-88
2022/12/26 04:46:41;;;;;;;50.22;28.73;;;10.10;99.90;;;;;;4975848;28;20046;-88
2022/12/26 04:52:00;;;;;;;49.33;27.45;;;10.10;99.90;;;;;;4976840;28;20097;-88
2022/12/26 04:54:28;;;;;;;39.95;25.55;;;10.10;99.90;;;;;;4976093;28;20050;-88
2022/12/26 04:56:54;;;;;;;40.25;25.60;;;10.10;99.90;;;;;;4959289;28;20484;-89
2022/12/26 04:59:21;;;;;;;41.60;27.33;;;10.00;99.90;;;;;;4959842;28;20062;-88
2022/12/26 05:10:24;;;;;;;33.28;23.13;;;10.00;99.90;;;;;;4999412;28;20091;-88
2022/12/26 05:12:51;;;;;;;31.48;21.45;;;10.00;99.90;;;;;;4987167;28;20042;-89
2022/12/26 05:15:17;;;;;;;33.50;21.35;;;10.00;99.90;;;;;;4975078;28;20014;-89
2022/12/26 05:29:04;;;;;;;29.98;18.73;;;10.00;99.90;;;;;;4976644;28;20030;-88
2022/12/26 05:31:30;;;;;;;23.15;16.95;;;10.00;99.90;;;;;;4959078;28;20023;-88
2022/12/26 05:34:06;;;;;;;24.67;17.42;;;10.00;99.90;;;;;;4959042;28;20117;-89
2022/12/26 05:36:45;;;;;;;21.80;15.82;;;9.90;99.90;;;;;;4960569;28;20023;-88
2022/12/26 05:39:12;;;;;;;20.20;15.35;;;9.90;99.90;;;;;;4974998;28;20017;-89
2022/12/26 05:41:39;;;;;;;17.40;13.45;;;9.90;99.90;;;;;;4975679;28;20478;-89
2022/12/26 05:44:06;;;;;;;17.90;12.85;;;9.80;99.90;;;;;;4977147;28;20045;-89
2022/12/26 05:46:32;;;;;;;17.02;12.70;;;9.80;99.90;;;;;;4979291;28;20047;-89
2022/12/26 05:48:57;;;;;;;16.45;11.60;;;9.80;99.90;;;;;;4975764;28;20035;-89
2022/12/26 05:51:24;;;;;;;15.23;10.70;;;9.80;99.90;;;;;;4975871;28;20123;-89
2022/12/26 05:53:50;;;;;;;14.75;10.52;;;9.80;99.90;;;;;;4975634;28;20027;-89
2022/12/26 05:56:16;;;;;;;13.20;9.15;;;9.90;99.90;;;;;;4975490;28;20019;-89
2022/12/26 05:58:42;;;;;;;12.88;8.60;;;9.80;99.90;;;;;;4977882;28;20015;-90
2022/12/26 06:01:12;;;;;;;13.32;8.98;;;9.80;99.90;;;;;;4976332;28;20541;-89
2022/12/26 06:03:47;;;;;;;14.57;9.77;;;9.80;99.90;;;;;;4975352;28;20077;-89
2022/12/26 06:06:14;;;;;;;11.57;8.55;;;9.90;99.90;;;;;;4975880;28;20078;-88
2022/12/26 06:08:40;;;;;;;10.93;8.13;;;9.80;99.90;;;;;;4975536;28;20030;-89
2022/12/26 06:11:08;;;;;;;9.75;7.78;;;9.80;99.90;;;;;;4975158;28;20023;-89
2022/12/26 06:13:34;;;;;;;10.27;7.38;;;9.80;99.90;;;;;;4975439;28;20124;-90
2022/12/26 06:16:05;;;;;;;14.27;7.72;;;9.80;99.90;;;;;;4975531;28;20019;-89
2022/12/26 06:18:33;;;;;;;13.00;7.75;;;9.80;99.90;;;;;;4975495;28;20046;-89
2022/12/26 06:21:02;;;;;;;11.10;7.78;;;9.80;99.90;;;;;;4975431;28;20031;-89
2022/12/26 06:23:30;;;;;;;12.55;8.30;;;9.80;99.90;;;;;;4975666;28;20030;-89
2022/12/26 06:25:56;;;;;;;11.35;7.70;;;9.80;99.90;;;;;;4975523;28;20025;-90
2022/12/26 06:28:25;;;;;;;12.65;8.32;;;9.80;99.90;;;;;;4977347;28;20031;-90
2022/12/26 06:30:51;;;;;;;14.30;8.75;;;9.80;99.90;;;;;;4978781;28;20107;-90
2022/12/26 06:33:17;;;;;;;17.05;8.95;;;9.80;99.90;;;;;;4978879;28;20018;-90
2022/12/26 06:35:45;;;;;;;13.40;9.18;;;9.80;99.90;;;;;;4979437;28;20038;-90
2022/12/26 06:38:12;;;;;;;14.15;8.80;;;9.80;99.90;;;;;;4978816;28;20023;-90
2022/12/26 06:40:39;;;;;;;13.27;8.52;;;9.80;99.90;;;;;;4978751;28;20038;-90
2022/12/26 06:43:07;;;;;;;12.85;8.60;;;9.80;99.90;;;;;;4980226;28;20018;-90
2022/12/26 06:45:35;;;;;;;11.77;8.40;;;9.70;99.90;;;;;;4978732;28;20475;-91
2022/12/26 06:48:02;;;;;;;10.68;7.70;;;9.70;99.90;;;;;;4978339;28;20034;-87
2022/12/26 06:50:30;;;;;;;11.95;7.80;;;9.70;99.90;;;;;;4979159;28;20062;-87
2022/12/26 06:52:56;;;;;;;13.85;8.73;;;9.70;99.90;;;;;;4978826;28;20062;-89
2022/12/26 06:55:23;;;;;;;13.63;8.55;;;9.70;99.90;;;;;;4996783;28;20022;-88
2022/12/26 06:57:51;;;;;;;12.27;8.40;;;9.70;99.90;;;;;;4998103;28;20031;-89
2022/12/26 07:00:17;;;;;;;13.00;8.25;;;9.70;99.90;;;;;;4997853;28;20026;-89
2022/12/26 07:02:43;;;;;;;17.05;9.55;;;9.60;99.90;;;;;;4998331;28;20029;-89
2022/12/26 07:05:11;;;;;;;13.52;9.70;;;9.70;99.90;;;;;;4997379;28;20451;-89
2022/12/26 07:07:36;;;;;;;14.73;9.73;;;9.70;99.90;;;;;;4997542;28;20014;-89
2022/12/26 07:10:02;;;;;;;15.55;10.38;;;9.70;99.90;;;;;;4997470;28;20442;-89
2022/12/26 07:12:28;;;;;;;14.52;9.98;;;9.70;99.90;;;;;;4999908;28;20026;-90
2022/12/26 07:14:57;;;;;;;15.27;9.57;;;9.70;99.90;;;;;;5000480;28;20022;-89
2022/12/26 07:17:23;;;;;;;15.57;10.77;;;9.60;99.90;;;;;;5000099;28;20018;-90
2022/12/26 07:19:51;;;;;;;16.05;10.38;;;9.60;99.90;;;;;;4998179;28;20109;-90
2022/12/26 07:22:16;;;;;;;14.77;9.95;;;9.60;99.90;;;;;;4998320;28;20117;-89
2022/12/26 07:24:42;;;;;;;19.45;10.73;;;9.60;99.90;;;;;;4997398;28;20402;-89
2022/12/26 07:27:10;;;;;;;13.15;9.45;;;9.60;99.90;;;;;;4997409;28;20081;-89
2022/12/26 07:29:36;;;;;;;15.25;9.73;;;9.60;99.90;;;;;;4981673;28;20343;-89
2022/12/26 07:32:02;;;;;;;14.93;9.82;;;9.50;99.90;;;;;;4998039;28;20058;-89
2022/12/26 07:34:28;;;;;;;15.18;9.55;;;9.60;99.90;;;;;;4998340;28;20343;-89
2022/12/26 07:36:56;;;;;;;15.15;9.73;;;9.60;99.90;;;;;;4998893;28;20109;-89
2022/12/26 07:39:23;;;;;;;13.95;9.43;;;9.60;99.90;;;;;;4997732;28;20047;-89
2022/12/26 07:41:58;;;;;;;18.75;11.02;;;9.60;99.90;;;;;;5013032;28;20083;-88
2022/12/26 07:44:33;;;;;;;14.95;9.32;;;9.60;99.90;;;;;;5006985;28;20097;-88
2022/12/26 07:47:00;;;;;;;12.73;9.27;;;9.50;99.90;;;;;;4998571;28;20049;-89
2022/12/26 07:49:28;;;;;;;13.27;8.55;;;9.50;99.90;;;;;;4997753;28;20008;-89
2022/12/26 07:51:56;;;;;;;14.77;8.65;;;9.50;99.90;;;;;;4998095;28;20022;-89
2022/12/26 07:54:25;;;;;;;13.18;8.93;;;9.50;99.90;;;;;;4997111;28;20026;-89
2022/12/26 07:56:53;;;;;;;14.55;8.52;;;9.50;99.90;;;;;;5000423;28;20091;-89
2022/12/26 07:59:21;;;;;;;14.35;8.80;;;9.50;99.90;;;;;;5012015;28;20045;-89
2022/12/26 08:01:56;;;;;;;11.88;7.30;;;9.50;99.90;;;;;;5019715;28;20046;-91
2022/12/26 08:04:24;;;;;;;12.02;7.45;;;9.50;99.90;;;;;;5016682;28;20015;-90
2022/12/26 08:06:52;;;;;;;13.23;8.05;;;9.50;99.90;;;;;;5000187;28;20023;-91
2022/12/26 08:09:18;;;;;;;10.65;6.93;;;9.50;99.90;;;;;;4999910;28;20038;-91
2022/12/26 08:11:44;;;;;;;13.73;6.90;;;9.60;99.90;;;;;;4994001;28;20110;-90
2022/12/26 08:14:11;;;;;;;11.50;6.78;;;9.50;99.90;;;;;;4981118;28;20344;-90
2022/12/26 08:16:37;;;;;;;10.15;6.15;;;9.50;99.90;;;;;;4979153;28;20460;-90
2022/12/26 08:19:07;;;;;;;10.95;6.57;;;9.50;99.90;;;;;;4980791;28;20165;-91
2022/12/26 08:21:32;;;;;;;9.82;6.13;;;9.60;99.90;;;;;;4976039;28;20470;-90
2022/12/26 08:24:01;;;;;;;9.65;5.68;;;9.50;99.90;;;;;;5002595;28;20028;-90
2022/12/26 08:26:27;;;;;;;11.80;5.65;;;9.50;99.90;;;;;;4995970;28;20041;-81
2022/12/26 08:28:56;;;;;;;12.02;6.15;;;9.60;99.90;;;;;;4961866;28;20511;-88
2022/12/26 08:31:22;;;;;;;9.75;5.55;;;9.60;99.90;;;;;;4978686;28;20026;-89
2022/12/26 08:33:48;;;;;;;10.40;5.53;;;9.60;99.90;;;;;;4977867;28;20110;-89
2022/12/26 08:36:17;;;;;;;9.68;5.05;;;9.70;99.90;;;;;;4990948;28;20030;-90
2022/12/26 08:38:43;;;;;;;8.35;5.28;;;9.60;99.90;;;;;;4997543;28;20361;-91
2022/12/26 08:41:20;;;;;;;10.93;5.32;;;9.70;99.90;;;;;;4996420;28;20135;-90
2022/12/26 08:46:17;;;;;;;11.07;5.93;;;9.70;99.90;;;;;;5011225;28;20045;-85
2022/12/26 08:48:43;;;;;;;11.93;4.82;;;9.70;99.90;;;;;;5029755;28;20034;-85
2022/12/26 08:51:16;;;;;;;11.90;5.35;;;9.70;99.90;;;;;;5011948;28;20528;-85
2022/12/26 08:53:44;;;;;;;11.55;4.63;;;9.70;99.90;;;;;;5008829;28;20125;-85
2022/12/26 08:56:13;;;;;;;12.13;4.43;;;9.70;99.90;;;;;;5013301;28;20083;-85
2022/12/26 08:58:40;;;;;;;10.23;4.68;;;9.70;99.90;;;;;;5007345;28;20038;-85
2022/12/26 09:01:27;;;;;;;7.85;4.00;;;9.80;99.90;;;;;;5012606;28;20029;-85
2022/12/26 09:03:55;;;;;;;8.85;4.38;;;9.80;99.90;;;;;;5013546;28;20463;-91
2022/12/26 09:06:21;;;;;;;8.40;3.80;;;9.80;99.90;;;;;;5014128;28;20018;-91
2022/12/26 09:08:58;;;;;;;9.60;3.80;;;9.80;99.90;;;;;;5015726;28;20036;-89
2022/12/26 09:11:27;;;;;;;7.10;3.95;;;9.90;99.90;;;;;;5020911;28;20017;-89
2022/12/26 09:13:59;;;;;;;7.72;4.38;;;9.90;99.90;;;;;;5026329;28;20053;-90
2022/12/26 09:16:30;;;;;;;10.82;3.80;;;10.00;99.90;;;;;;5019832;28;20145;-88
2022/12/26 09:18:59;;;;;;;7.65;4.15;;;10.00;99.90;;;;;;5017505;28;20025;-89
2022/12/26 09:21:26;;;;;;;10.80;3.38;;;10.00;99.90;;;;;;5014182;28;20018;-86
2022/12/26 09:24:00;;;;;;;7.10;3.92;;;10.10;99.90;;;;;;5012640;28;20022;-86
2022/12/26 09:26:26;;;;;;;8.95;3.80;;;10.10;99.90;;;;;;5029319;28;20040;-86
2022/12/26 09:28:52;;;;;;;9.32;3.42;;;10.10;99.90;;;;;;5009369;28;20056;-86
2022/12/26 09:31:23;;;;;;;6.68;3.30;;;10.20;99.90;;;;;;5012218;28;20151;-86
2022/12/26 09:33:50;;;;;;;6.30;3.40;;;10.20;99.90;;;;;;5011309;28;20073;-86
2022/12/26 09:36:19;;;;;;;9.75;3.38;;;10.20;99.90;;;;;;5010489;28;20083;-86
2022/12/26 09:38:46;;;;;;;7.45;3.20;;;10.20;99.90;;;;;;5001225;28;20085;-85
2022/12/26 09:41:30;;;;;;;7.82;3.22;;;10.30;99.90;;;;;;5010818;28;20025;-84
2022/12/26 09:44:17;;;;;;;8.38;2.85;;;10.30;99.90;;;;;;5010521;28;20502;-85
2022/12/26 09:46:56;;;;;;;6.68;2.58;;;10.30;99.90;;;;;;5009974;28;20104;-85
2022/12/26 09:49:29;;;;;;;10.95;2.90;;;10.40;99.90;;;;;;5005920;28;20027;-85
2022/12/26 09:52:03;;;;;;;7.32;2.75;;;10.40;99.90;;;;;;5011488;28;20022;-84
2022/12/26 09:54:41;;;;;;;6.53;3.42;;;10.40;99.90;;;;;;5011558;28;20034;-84
2022/12/26 09:57:15;;;;;;;8.43;3.13;;;10.40;99.90;;;;;;5007894;28;20037;-84
2022/12/26 10:00:03;;;;;;;8.70;2.70;;;10.40;99.90;;;;;;4995318;28;20056;-84
2022/12/26 10:02:52;;;;;;;8.48;2.83;;;10.40;99.90;;;;;;5014112;28;20030;-85
2022/12/26 10:05:24;;;;;;;10.23;3.53;;;10.40;99.90;;;;;;5016387;28;20026;-85
2022/12/26 10:08:24;;;;;;;10.35;3.65;;;10.40;99.90;;;;;;5010324;28;20055;-85
2022/12/26 10:10:56;;;;;;;10.50;3.20;;;10.40;99.90;;;;;;5032183;28;20029;-87
2022/12/26 10:13:22;;;;;;;9.98;3.10;;;10.40;99.90;;;;;;5007756;28;20022;-87
2022/12/26 10:15:54;;;;;;;11.35;3.53;;;10.30;99.90;;;;;;5011631;28;20386;-87
2022/12/26 10:18:41;;;;;;;10.05;3.45;;;10.40;99.90;;;;;;5011458;28;20028;-88
2022/12/26 10:21:34;;;;;;;7.75;2.95;;;10.30;99.90;;;;;;5010136;28;20057;-87
2022/12/26 10:24:17;;;;;;;7.07;2.80;;;10.30;99.90;;;;;;5015707;28;20018;-87
2022/12/26 10:26:58;;;;;;;12.20;2.60;;;10.30;99.90;;;;;;5015393;28;20041;-86
2022/12/26 10:29:34;;;;;;;9.57;2.60;;;10.30;99.90;;;;;;5015836;28;20022;-91
2022/12/26 10:32:09;;;;;;;5.03;2.78;;;10.30;99.90;;;;;;5016609;28;20383;-90
2022/12/26 10:34:44;;;;;;;11.23;4.35;;;10.30;99.90;;;;;;4997153;28;20085;-91
2022/12/26 10:37:36;;;;;;;7.70;3.28;;;10.30;99.90;;;;;;5013137;28;20478;-91
2022/12/26 10:40:49;;;;;;;8.27;3.15;;;10.30;99.90;;;;;;5012337;28;20030;-91
2022/12/26 10:43:17;;;;;;;10.35;3.58;;;10.30;99.90;;;;;;5013706;28;20083;-91
2022/12/26 10:45:49;;;;;;;13.45;4.00;;;10.30;99.90;;;;;;5012984;28;20038;-90
2022/12/26 10:48:15;;;;;;;9.90;3.30;;;10.30;99.90;;;;;;5013526;28;20022;-90
2022/12/26 10:50:46;;;;;;;8.27;3.50;;;10.30;99.90;;;;;;4997944;28;20090;-91
2022/12/26 10:53:13;;;;;;;;;;;10.30;99.90;;;;;;5012747;28;20033;-91
2022/12/26 10:55:39;;;;;;;10.23;3.00;;;10.30;99.90;;;;;;5010347;28;20343;-90
2022/12/26 10:58:18;;;;;;;11.00;3.50;;;10.30;99.90;;;;;;5003155;28;20102;-91
2022/12/26 11:00:43;;;;;;;16.85;3.55;;;10.30;99.90;;;;;;5030873;28;20029;-87
2022/12/26 11:03:14;;;;;;;17.15;3.25;;;10.30;99.90;;;;;;4972694;28;20030;-87
2022/12/26 11:05:42;;;;;;;;;;;10.20;99.90;;;;;;5014576;28;20120;-86
2022/12/26 11:08:16;;;;;;;19.77;2.55;;;10.20;99.90;;;;;;5010491;28;19952;-86
2022/12/26 11:11:00;;;;;;;16.45;2.90;;;10.20;99.90;;;;;;5013969;28;20121;-85
2022/12/26 11:13:26;;;;;;;10.55;1.67;;;10.10;99.90;;;;;;5007884;28;20084;-90
2022/12/26 11:15:52;;;;;;;10.05;2.17;;;10.00;99.90;;;;;;4991298;28;20501;-91
2022/12/26 11:18:46;;;;;;;13.98;2.38;;;10.00;99.90;;;;;;4976620;28;20029;-85
2022/12/26 11:21:18;;;;;;;10.10;2.20;;;9.90;99.90;;;;;;5011800;28;20030;-85
2022/12/26 11:23:48;;;;;;;12.82;2.50;;;9.90;99.90;;;;;;5015410;28;20018;-86
2022/12/26 11:26:26;;;;;;;14.95;2.33;;;9.90;99.90;;;;;;5010609;28;20494;-86
2022/12/26 11:29:04;;;;;;;12.80;2.38;;;9.90;99.90;;;;;;5008797;28;20054;-85
2022/12/26 11:32:00;;;;;;;12.18;2.92;;;9.90;99.90;;;;;;5010438;28;20022;-86
2022/12/26 11:34:33;;;;;;;13.13;2.35;;;9.80;99.90;;;;;;5010174;28;20092;-86
2022/12/26 11:36:59;;;;;;;11.90;2.45;;;9.80;99.90;;;;;;5015512;28;20080;-86
2022/12/26 11:39:30;;;;;;;10.50;1.80;;;9.70;99.90;;;;;;5010336;28;20034;-86
2022/12/26 11:41:57;;;;;;;10.63;1.90;;;9.70;99.90;;;;;;5010169;28;20033;-86
2022/12/26 11:44:30;;;;;;;13.77;2.53;;;9.70;99.90;;;;;;5006061;28;20038;-87
2022/12/26 11:47:09;;;;;;;12.23;2.28;;;9.70;99.90;;;;;;5005885;28;20030;-87
2022/12/26 11:50:06;;;;;;;13.20;2.88;;;9.60;99.90;;;;;;5014088;28;20084;-86
2022/12/26 11:52:51;;;;;;;14.23;1.60;;;9.70;99.90;;;;;;5007438;28;20446;-86
2022/12/26 11:55:23;;;;;;;19.88;3.17;;;9.60;99.90;;;;;;5013964;28;20379;-86
2022/12/26 11:58:04;;;;;;;14.57;2.15;;;9.60;99.90;;;;;;5014517;28;20038;-84
2022/12/26 12:00:53;;;;;;;10.63;1.88;;;9.50;99.90;;;;;;5013900;28;20418;-83
2022/12/26 12:03:35;;;;;;;10.68;1.85;;;9.50;99.90;;;;;;5008190;28;20053;-85
2022/12/26 12:06:23;;;;;;;5.75;1.55;;;9.40;99.90;;;;;;5015383;28;20030;-85
2022/12/26 12:08:51;;;;;;;5.75;1.27;;;9.40;99.90;;;;;;5015323;28;20079;-88
2022/12/26 12:11:26;;;;;;;11.90;2.13;;;9.30;99.90;;;;;;5014908;28;20355;-88
2022/12/26 12:14:25;;;;;;;8.50;1.73;;;9.30;99.90;;;;;;5014855;28;20489;-88
2022/12/26 12:17:26;;;;;;;11.50;1.75;;;9.30;99.90;;;;;;5014837;28;20034;-88
2022/12/26 12:20:06;;;;;;;8.40;2.10;;;9.30;99.90;;;;;;5014724;28;20426;-89
2022/12/26 12:23:15;;;;;;;7.82;1.42;;;9.20;99.90;;;;;;5015221;28;20269;-89
2022/12/26 12:25:54;;;;;;;8.38;1.63;;;9.20;99.90;;;;;;5012570;28;20463;-85
2022/12/26 12:28:39;;;;;;;8.02;1.40;;;9.20;99.90;;;;;;5014007;28;20022;-85
2022/12/26 12:31:48;;;;;;;6.63;1.40;;;9.20;99.90;;;;;;5013839;28;20026;-84
2022/12/26 12:34:25;;;;;;;5.40;1.25;;;9.20;99.90;;;;;;5014035;28;20028;-84
2022/12/26 12:37:13;;;;;;;8.13;1.63;;;9.20;99.90;;;;;;5014990;28;20030;-84
2022/12/26 12:40:14;;;;;;;6.82;1.40;;;9.20;99.90;;;;;;5013514;28;20034;-84
2022/12/26 12:43:27;;;;;;;6.50;1.83;;;9.20;99.90;;;;;;4993206;28;20132;-84
2022/12/26 12:46:21;;;;;;;7.28;1.10;;;9.20;99.90;;;;;;5013176;28;20050;-84
2022/12/26 12:49:23;;;;;;;7.55;1.77;;;9.10;99.90;;;;;;5013358;28;20060;-84
2022/12/26 12:52:30;;;;;;;9.30;1.58;;;9.10;99.90;;;;;;5008033;28;20030;-85
2022/12/26 12:55:16;;;;;;;6.80;1.15;;;9.00;99.90;;;;;;5010301;28;20034;-85
2022/12/26 12:57:52;;;;;;;5.95;1.30;;;9.00;99.90;;;;;;5013385;28;20049;-84
2022/12/26 13:00:22;;;;;;;5.50;1.20;;;9.00;99.90;;;;;;5013058;28;20450;-84
2022/12/26 13:03:24;;;;;;;9.48;2.38;;;9.10;99.90;;;;;;5013363;28;20068;-83
2022/12/26 13:06:10;;;;;;;5.03;1.20;;;9.10;99.90;;;;;;4992442;28;20042;-84
2022/12/26 13:08:46;;;;;;;8.52;2.00;;;9.10;99.90;;;;;;5012633;28;20065;-84
2022/12/26 13:11:55;;;;;;;7.93;1.30;;;9.10;99.90;;;;;;5013008;28;20045;-84
2022/12/26 13:14:36;;;;;;;9.80;1.55;;;9.10;99.90;;;;;;5014504;28;20128;-88
2022/12/26 13:17:22;;;;;;;12.88;2.05;;;9.20;99.90;;;;;;5014621;28;20025;-88
2022/12/26 13:20:08;;;;;;;8.95;1.58;;;9.20;99.90;;;;;;5013363;28;20026;-87
2022/12/26 13:25:27;;;;;;;11.70;1.98;;;9.20;99.90;;;;;;5014955;28;20084;-85
2022/12/26 13:28:08;;;;;;;11.18;1.60;;;9.20;99.90;;;;;;5012629;28;20017;-84
2022/12/26 13:30:35;;;;;;;10.77;1.90;;;9.20;99.90;;;;;;5014293;28;20083;-87
2022/12/26 13:33:01;;;;;;;9.32;1.65;;;9.20;99.90;;;;;;4997037;28;20192;-88
2022/12/26 13:36:00;;;;;;;10.57;1.52;;;9.20;99.90;;;;;;4996896;28;20061;-88
2022/12/26 13:38:57;;;;;;;14.00;1.70;;;9.30;99.90;;;;;;5012524;28;20072;-85
2022/12/26 13:44:19;;;;;;;6.05;1.45;;;9.30;99.90;;;;;;5013712;28;20045;-84
2022/12/26 13:46:44;;;;;;;6.90;1.20;;;9.20;99.90;;;;;;5012774;28;20080;-84
2022/12/26 13:49:39;;;;;;;4.07;1.58;;;9.20;99.90;;;;;;5012398;28;20029;-84
2022/12/26 13:52:11;;;;;;;4.78;1.20;;;9.20;99.90;;;;;;5013675;28;20022;-84
2022/12/26 13:54:46;;;;;;;4.35;1.13;;;9.10;99.90;;;;;;5012531;28;20030;-84
2022/12/26 13:57:18;;;;;;;6.47;1.30;;;9.10;99.90;;;;;;5012329;28;20533;-84
2022/12/26 13:59:50;;;;;;;4.32;1.05;;;9.10;99.90;;;;;;5012203;28;20057;-84
2022/12/26 14:02:37;;;;;;;4.75;1.17;;;9.00;99.90;;;;;;5012220;28;20109;-84
2022/12/26 14:05:49;;;;;;;5.38;1.20;;;9.00;99.90;;;;;;5013034;28;20026;-87
2022/12/26 14:08:44;;;;;;;9.98;3.47;;;9.00;99.90;;;;;;4997765;28;20030;-87
2022/12/26 14:11:27;;;;;;;8.52;4.22;;;8.90;99.90;;;;;;5012970;28;20034;-87
2022/12/26 14:14:14;;;;;;;17.08;6.25;;;8.90;99.90;;;;;;5012904;28;20037;-87
2022/12/26 14:17:08;;;;;;;15.13;6.35;;;8.80;99.90;;;;;;5012949;28;20022;-87
2022/12/26 14:20:01;;;;;;;13.43;4.30;;;8.80;99.90;;;;;;4992480;28;20045;-87
2022/12/26 14:22:58;;;;;;;15.02;9.15;;;8.80;99.90;;;;;;5012217;28;20054;-85
2022/12/26 14:25:46;;;;;;;7.00;2.40;;;8.70;99.90;;;;;;5012171;28;20060;-84
2022/12/26 14:28:18;;;;;;;9.15;2.75;;;8.70;99.90;;;;;;5013143;28;20080;-87
2022/12/26 14:31:30;;;;;;;6.55;2.65;;;8.70;99.90;;;;;;5012594;28;20026;-87
2022/12/26 14:34:15;;;;;;;8.05;1.67;;;8.70;99.90;;;;;;4981374;28;20037;-85
2022/12/26 14:36:55;;;;;;;7.22;1.60;;;8.70;99.90;;;;;;5011997;28;20426;-83
2022/12/26 14:39:33;;;;;;;9.05;1.77;;;8.60;99.90;;;;;;5012090;28;20040;-84
2022/12/26 14:44:50;;;;;;;5.63;2.25;;;8.60;99.90;;;;;;5012766;28;20053;-85
2022/12/26 14:47:37;;;;;;;5.95;1.85;;;8.60;99.90;;;;;;5012741;28;20022;-84
2022/12/26 14:50:36;;;;;;;8.73;2.42;;;8.60;99.90;;;;;;5016051;28;20026;-84
2022/12/26 14:53:20;;;;;;;13.15;5.22;;;8.60;99.90;;;;;;5012883;28;20502;-83
2022/12/26 14:55:46;;;;;;;4.88;1.67;;;8.50;99.90;;;;;;5016113;28;20029;-84
2022/12/26 14:58:30;;;;;;;4.57;1.10;;;8.50;99.90;;;;;;5015556;28;20022;-85
2022/12/26 15:01:16;;;;;;;7.50;1.90;;;8.50;99.90;;;;;;5015292;28;20030;-84
2022/12/26 15:04:19;;;;;;;5.43;1.60;;;8.50;99.90;;;;;;5031741;28;20109;-85
2022/12/26 15:06:57;;;;;;;7.28;3.05;;;8.40;99.90;;;;;;5015184;28;20114;-84
2022/12/26 15:09:51;;;;;;;7.80;2.50;;;8.40;99.90;;;;;;5015242;28;20026;-85
2022/12/26 15:12:39;;;;;;;8.05;1.42;;;8.40;99.90;;;;;;5015119;28;20029;-84
2022/12/26 15:15:29;;;;;;;15.30;3.63;;;8.30;99.90;;;;;;5015101;28;20065;-84
2022/12/26 15:18:26;;;;;;;6.47;1.85;;;8.30;99.90;;;;;;5015041;28;20060;-83
2022/12/26 15:21:39;;;;;;;4.70;1.60;;;8.30;99.90;;;;;;5014781;28;20033;-83
2022/12/26 15:24:45;;;;;;;8.00;1.60;;;8.30;99.90;;;;;;4984724;28;20132;-83
2022/12/26 15:27:29;;;;;;;5.18;1.60;;;8.30;99.90;;;;;;5016283;28;20065;-84
2022/12/26 15:30:20;;;;;;;6.70;1.60;;;8.30;99.90;;;;;;5016150;28;20052;-84
2022/12/26 15:33:22;;;;;;;9.57;2.38;;;8.30;99.90;;;;;;5014742;28;20034;-84